Time;durP1;ratioP1;P1;durP2;ratioP2;P2;SDS_P1;SDS_P2;PMS_P1;PMS_P2;Temp;Humidity;BMP_temperature;BMP_pressure;BME280_temperature;BME280_humidity;BME280_pressure;Samples;Min_cycle;Max_cycle;Signal;HPM_P1;HPM_P2
2023/12/15 00:06:37;;;;;;;0.40;0.40;;;;;;;;;;6133168;22;20071;-92
2023/12/15 00:19:26;;;;;;;0.45;0.45;;;;;;;;;;6112976;22;20045;-91
2023/12/15 00:21:52;;;;;;;0.40;0.40;;;;;;;;;;6099491;22;20033;-92
2023/12/15 01:16:24;;;;;;;0.30;0.30;;;;;;;;;;6299510;22;20031;-91
2023/12/15 01:44:50;;;;;;;0.40;0.40;;;;;;;;;;6188630;22;20259;-93
2023/12/15 01:47:18;;;;;;;0.30;0.30;;;;;;;;;;6115961;23;20022;-93
2023/12/15 01:52:25;;;;;;;0.32;0.32;;;;;;;;;;6228076;22;20014;-93
2023/12/15 01:54:51;;;;;;;0.38;0.38;;;;;;;;;;6279223;22;20023;-93
2023/12/15 01:57:17;;;;;;;0.35;0.35;;;;;;;;;;6304010;22;20050;-92
2023/12/15 02:10:08;;;;;;;0.40;0.40;;;;;;;;;;6246102;22;20020;-93
2023/12/15 02:12:34;;;;;;;0.40;0.40;;;;;;;;;;6219836;22;20039;-91
2023/12/15 02:15:00;;;;;;;0.40;0.40;;;;;;;;;;6066921;23;20019;-93
2023/12/15 02:22:38;;;;;;;0.45;0.45;;;;;;;;;;6202452;22;20023;-92
2023/12/15 02:25:04;;;;;;;0.40;0.40;;;;;;;;;;6278063;22;20122;-92
2023/12/15 02:43:04;;;;;;;0.30;0.30;;;;;;;;;;6164844;23;20014;-93
2023/12/15 02:45:30;;;;;;;0.40;0.40;;;;;;;;;;6245589;23;20009;-92
2023/12/15 02:47:57;;;;;;;0.30;0.30;;;;;;;;;;6239738;22;20026;-94
2023/12/15 02:50:24;;;;;;;0.35;0.35;;;;;;;;;;6218769;22;20075;-94
2023/12/15 03:00:37;;;;;;;0.30;0.30;;;;;;;;;;6139885;22;20029;-92
2023/12/15 03:03:33;;;;;;;0.30;0.30;;;;;;;;;;6247064;22;20018;-95
2023/12/15 03:08:39;;;;;;;0.30;0.30;;;;;;;;;;6143481;23;20041;-94
2023/12/15 03:13:41;;;;;;;0.40;0.40;;;;;;;;;;6128918;22;20030;-93
2023/12/15 03:16:07;;;;;;;0.40;0.40;;;;;;;;;;6220762;23;20018;-94
2023/12/15 03:18:33;;;;;;;0.30;0.30;;;;;;;;;;6220692;23;20032;-94
2023/12/15 03:21:00;;;;;;;0.40;0.40;;;;;;;;;;6248727;23;20002;-93
2023/12/15 03:23:26;;;;;;;0.30;0.30;;;;;;;;;;6242098;22;20025;-89
2023/12/15 03:25:52;;;;;;;0.30;0.30;;;;;;;;;;6223153;23;20024;-93
2023/12/15 03:28:21;;;;;;;0.40;0.40;;;;;;;;;;6237318;23;20027;-93
2023/12/15 03:57:39;;;;;;;0.30;0.30;;;;;;;;;;6273594;22;20035;-94
2023/12/15 04:05:16;;;;;;;0.30;0.30;;;;;;;;;;6265242;22;20023;-93
2023/12/15 04:07:44;;;;;;;0.40;0.40;;;;;;;;;;6270106;22;20066;-93
2023/12/15 04:15:26;;;;;;;0.40;0.40;;;;;;;;;;6243876;22;20028;-92
2023/12/15 04:20:28;;;;;;;0.40;0.40;;;;;;;;;;6248022;22;20020;-93
2023/12/15 04:28:12;;;;;;;0.40;0.40;;;;;;;;;;6245530;22;20043;-93
2023/12/15 04:30:44;;;;;;;0.30;0.30;;;;;;;;;;6269690;23;20016;-93
2023/12/15 04:33:10;;;;;;;0.40;0.40;;;;;;;;;;6270525;22;20027;-94
2023/12/15 04:48:35;;;;;;;0.40;0.40;;;;;;;;;;6244985;22;20015;-93
2023/12/15 04:51:01;;;;;;;0.40;0.40;;;;;;;;;;6215110;23;20020;-94
2023/12/15 04:53:27;;;;;;;0.38;0.38;;;;;;;;;;6226644;22;20508;-92
2023/12/15 05:03:41;;;;;;;0.40;0.40;;;;;;;;;;6212629;22;20024;-92
2023/12/15 05:08:44;;;;;;;0.40;0.40;;;;;;;;;;6240208;22;20048;-93
2023/12/15 05:11:10;;;;;;;0.40;0.40;;;;;;;;;;6190094;23;20024;-93
2023/12/15 05:13:37;;;;;;;0.40;0.40;;;;;;;;;;6188408;23;20044;-94
2023/12/15 05:18:38;;;;;;;0.35;0.35;;;;;;;;;;6260289;22;19915;-95
2023/12/15 05:21:05;;;;;;;0.40;0.40;;;;;;;;;;6243426;23;20027;-92
2023/12/15 05:26:21;;;;;;;0.30;0.30;;;;;;;;;;6260196;22;20028;-92
2023/12/15 05:31:44;;;;;;;0.38;0.38;;;;;;;;;;6243051;22;20072;-95
2023/12/15 05:34:10;;;;;;;0.40;0.40;;;;;;;;;;6229113;22;20016;-91
2023/12/15 05:36:36;;;;;;;0.30;0.30;;;;;;;;;;6238763;23;20420;-94
2023/12/15 05:44:14;;;;;;;0.30;0.30;;;;;;;;;;6266951;22;20039;-93
2023/12/15 05:46:43;;;;;;;0.30;0.30;;;;;;;;;;6242518;23;20020;-93
2023/12/15 05:49:10;;;;;;;0.40;0.40;;;;;;;;;;6243920;23;20030;-93
2023/12/15 05:51:47;;;;;;;0.30;0.30;;;;;;;;;;6245445;22;20035;-94
2023/12/15 05:54:13;;;;;;;0.30;0.30;;;;;;;;;;6243013;23;20046;-94
2023/12/15 05:56:39;;;;;;;0.40;0.40;;;;;;;;;;6268222;23;20329;-93
2023/12/15 05:59:05;;;;;;;0.30;0.30;;;;;;;;;;6242431;23;20051;-95
2023/12/15 06:04:14;;;;;;;0.40;0.40;;;;;;;;;;6238887;22;20047;-92
2023/12/15 06:06:41;;;;;;;0.38;0.38;;;;;;;;;;6213055;23;20001;-93
2023/12/15 06:09:09;;;;;;;0.30;0.30;;;;;;;;;;6213270;22;20016;-93
2023/12/15 06:11:39;;;;;;;0.40;0.40;;;;;;;;;;6186731;23;20020;-92
2023/12/15 06:14:06;;;;;;;0.40;0.40;;;;;;;;;;6189506;23;20080;-94
2023/12/15 06:19:08;;;;;;;0.40;0.40;;;;;;;;;;6233353;22;20039;-94
2023/12/15 06:21:34;;;;;;;0.30;0.30;;;;;;;;;;6275525;22;20019;-93
2023/12/15 06:24:00;;;;;;;0.30;0.30;;;;;;;;;;6272986;22;20066;-93
2023/12/15 06:26:26;;;;;;;0.30;0.30;;;;;;;;;;6272135;22;20046;-94
2023/12/15 06:28:53;;;;;;;0.40;0.40;;;;;;;;;;6272361;22;19999;-93
2023/12/15 06:31:19;;;;;;;0.40;0.40;;;;;;;;;;6272138;22;20026;-92
2023/12/15 06:41:34;;;;;;;0.30;0.30;;;;;;;;;;6235286;22;20040;-91
2023/12/15 06:44:00;;;;;;;0.30;0.30;;;;;;;;;;6210680;22;20020;-93
2023/12/15 06:49:02;;;;;;;0.28;0.28;;;;;;;;;;6268563;22;20031;-93
2023/12/15 06:51:29;;;;;;;0.40;0.40;;;;;;;;;;6242640;23;20074;-94
2023/12/15 06:53:55;;;;;;;0.35;0.35;;;;;;;;;;6235614;22;21108;-94
2023/12/15 06:58:56;;;;;;;0.40;0.40;;;;;;;;;;6269425;22;20016;-94
2023/12/15 07:01:22;;;;;;;0.40;0.40;;;;;;;;;;6218354;22;20008;-92
2023/12/15 07:03:48;;;;;;;0.40;0.40;;;;;;;;;;6238837;22;20012;-93
2023/12/15 07:08:54;;;;;;;0.55;0.55;;;;;;;;;;6278886;22;20049;-93
2023/12/15 07:11:20;;;;;;;0.32;0.32;;;;;;;;;;6248049;22;20054;-92
2023/12/15 07:21:37;;;;;;;0.32;0.32;;;;;;;;;;6264524;22;20004;-93
2023/12/15 07:24:06;;;;;;;0.32;0.32;;;;;;;;;;6268937;22;20024;-92
2023/12/15 07:26:33;;;;;;;0.30;0.30;;;;;;;;;;6243425;23;20031;-95
2023/12/15 07:28:59;;;;;;;0.40;0.40;;;;;;;;;;6193276;23;20048;-92
2023/12/15 07:31:25;;;;;;;0.40;0.40;;;;;;;;;;6218429;22;20030;-91
2023/12/15 07:41:43;;;;;;;0.30;0.30;;;;;;;;;;6196245;22;1058072;-92
2023/12/15 07:50:01;;;;;;;0.40;0.40;;;;;;;;;;6249266;22;20035;-93
2023/12/15 07:57:42;;;;;;;0.40;0.40;;;;;;;;;;6282588;22;20023;-94
2023/12/15 08:00:11;;;;;;;0.40;0.40;;;;;;;;;;6236320;22;20046;-92
2023/12/15 08:33:48;;;;;;;0.40;0.40;;;;;;;;;;6243319;22;20227;-94
2023/12/15 08:54:34;;;;;;;0.30;0.30;;;;;;;;;;6236404;22;19935;-91
2023/12/15 08:59:38;;;;;;;0.40;0.40;;;;;;;;;;6247183;22;20016;-92
2023/12/15 09:51:30;;;;;;;0.40;0.40;;;;;;;;;;6243691;22;20039;-94
2023/12/15 10:04:24;;;;;;;0.40;0.40;;;;;;;;;;6233871;22;20024;-85
2023/12/15 10:06:50;;;;;;;0.22;0.22;;;;;;;;;;6269525;22;20051;-88
2023/12/15 10:09:20;;;;;;;0.30;0.30;;;;;;;;;;6239564;23;20020;-86
2023/12/15 10:11:57;;;;;;;0.40;0.40;;;;;;;;;;6245452;23;20008;-87
2023/12/15 10:14:27;;;;;;;0.40;0.40;;;;;;;;;;6248945;23;20023;-85
2023/12/15 10:16:53;;;;;;;0.40;0.40;;;;;;;;;;6238135;23;20020;-86
2023/12/15 10:19:19;;;;;;;0.40;0.40;;;;;;;;;;6263974;23;20024;-86
2023/12/15 10:21:47;;;;;;;0.30;0.30;;;;;;;;;;6240923;23;20005;-85
2023/12/15 10:24:25;;;;;;;0.30;0.30;;;;;;;;;;6246338;23;20000;-87
2023/12/15 10:26:51;;;;;;;0.30;0.30;;;;;;;;;;6240932;23;20347;-86
2023/12/15 10:29:21;;;;;;;0.30;0.30;;;;;;;;;;6269614;22;20016;-86
2023/12/15 10:31:51;;;;;;;0.30;0.30;;;;;;;;;;6266576;23;20023;-88
2023/12/15 10:34:17;;;;;;;0.40;0.40;;;;;;;;;;6244008;22;20034;-87
2023/12/15 10:36:47;;;;;;;0.40;0.40;;;;;;;;;;6271678;23;20063;-86
2023/12/15 10:39:33;;;;;;;0.30;0.30;;;;;;;;;;6244529;23;20016;-87
2023/12/15 10:42:03;;;;;;;0.30;0.30;;;;;;;;;;6242209;23;20008;-85
2023/12/15 10:44:40;;;;;;;0.20;0.20;;;;;;;;;;6244284;23;20117;-85
2023/12/15 10:47:29;;;;;;;0.40;0.40;;;;;;;;;;6271166;22;20004;-87
2023/12/15 10:49:58;;;;;;;0.30;0.30;;;;;;;;;;6265735;22;20025;-85
2023/12/15 10:52:27;;;;;;;0.30;0.30;;;;;;;;;;6270397;23;20016;-86
2023/12/15 10:57:47;;;;;;;0.30;0.30;;;;;;;;;;6241518;23;20025;-87
2023/12/15 11:05:26;;;;;;;0.30;0.30;;;;;;;;;;6265971;22;20541;-86
2023/12/15 11:07:53;;;;;;;0.40;0.40;;;;;;;;;;6269784;22;20024;-88
2023/12/15 11:10:19;;;;;;;0.30;0.30;;;;;;;;;;6239189;23;20024;-86
2023/12/15 11:12:47;;;;;;;0.30;0.30;;;;;;;;;;6214601;23;20000;-87
2023/12/15 11:15:14;;;;;;;0.38;0.38;;;;;;;;;;6237150;23;20410;-86
2023/12/15 11:17:44;;;;;;;0.30;0.30;;;;;;;;;;6236868;23;20023;-85
2023/12/15 11:20:20;;;;;;;0.30;0.30;;;;;;;;;;6220456;22;20016;-87
2023/12/15 11:23:24;;;;;;;0.50;0.50;;;;;;;;;;6234940;23;20027;-86
2023/12/15 11:26:11;;;;;;;0.38;0.38;;;;;;;;;;6210163;23;20005;-84
2023/12/15 11:28:48;;;;;;;0.30;0.30;;;;;;;;;;6235536;23;20021;-86
2023/12/15 11:31:22;;;;;;;0.30;0.30;;;;;;;;;;6206270;23;20074;-84
2023/12/15 11:33:49;;;;;;;0.28;0.28;;;;;;;;;;6208404;23;20024;-87
2023/12/15 11:36:18;;;;;;;0.20;0.20;;;;;;;;;;6207838;23;20079;-85
2023/12/15 11:38:51;;;;;;;0.25;0.25;;;;;;;;;;6209054;23;20047;-90
2023/12/15 11:44:17;;;;;;;0.30;0.30;;;;;;;;;;6295313;22;20075;-84
2023/12/15 11:49:24;;;;;;;0.30;0.30;;;;;;;;;;6287534;22;20246;-86
2023/12/15 11:51:53;;;;;;;0.30;0.30;;;;;;;;;;6271121;22;20030;-87
2023/12/15 11:54:22;;;;;;;0.20;0.20;;;;;;;;;;6280488;22;20023;-87
2023/12/15 11:56:49;;;;;;;0.30;0.30;;;;;;;;;;6299322;22;20010;-87
2023/12/15 11:59:16;;;;;;;0.22;0.22;;;;;;;;;;6251303;22;20086;-86
2023/12/15 12:01:43;;;;;;;0.30;0.30;;;;;;;;;;6269671;22;20077;-86
2023/12/15 12:04:23;;;;;;;0.20;0.20;;;;;;;;;;6270272;22;20023;-85
2023/12/15 12:06:54;;;;;;;0.28;0.28;;;;;;;;;;6272638;22;20031;-86
2023/12/15 12:27:40;;;;;;;0.30;0.30;;;;;;;;;;6243071;22;20043;-91
2023/12/15 12:30:13;;;;;;;0.30;0.30;;;;;;;;;;6209408;22;20016;-92
2023/12/15 12:35:15;;;;;;;0.30;0.30;;;;;;;;;;6241065;23;20021;-93
2023/12/15 12:45:28;;;;;;;0.30;0.30;;;;;;;;;;6289736;22;20027;-86
2023/12/15 12:48:04;;;;;;;0.30;0.30;;;;;;;;;;6242825;23;20024;-85
2023/12/15 12:50:52;;;;;;;0.30;0.30;;;;;;;;;;6267166;22;20031;-83
2023/12/15 12:56:44;;;;;;;0.40;0.40;;;;;;;;;;6285933;22;20048;-82
2023/12/15 12:59:33;;;;;;;0.30;0.30;;;;;;;;;;6269711;22;20016;-86
2023/12/15 13:02:11;;;;;;;0.30;0.30;;;;;;;;;;6237448;22;20012;-85
2023/12/15 13:08:08;;;;;;;0.30;0.30;;;;;;;;;;6285893;22;20027;-85
2023/12/15 13:11:16;;;;;;;0.20;0.20;;;;;;;;;;6274508;22;20020;-86
2023/12/15 13:13:44;;;;;;;0.30;0.30;;;;;;;;;;6227604;23;20064;-87
2023/12/15 13:16:22;;;;;;;0.30;0.30;;;;;;;;;;6243775;23;20076;-86
2023/12/15 13:18:58;;;;;;;0.30;0.30;;;;;;;;;;6248615;23;20016;-85
2023/12/15 13:21:33;;;;;;;0.30;0.30;;;;;;;;;;6263484;22;20022;-87
2023/12/15 13:23:59;;;;;;;0.30;0.30;;;;;;;;;;6238427;23;20011;-86
2023/12/15 13:26:34;;;;;;;0.38;0.38;;;;;;;;;;6248775;22;20008;-85
2023/12/15 13:29:13;;;;;;;0.40;0.40;;;;;;;;;;6262183;22;20028;-86
2023/12/15 13:31:39;;;;;;;0.20;0.20;;;;;;;;;;6236874;23;20016;-84
2023/12/15 13:34:06;;;;;;;0.30;0.30;;;;;;;;;;6236633;23;20022;-85
2023/12/15 13:36:35;;;;;;;0.30;0.30;;;;;;;;;;6248760;23;20068;-85
2023/12/15 13:39:16;;;;;;;0.40;0.40;;;;;;;;;;6266367;22;20059;-85
2023/12/15 13:42:13;;;;;;;0.30;0.30;;;;;;;;;;6273871;23;20000;-84
2023/12/15 13:44:58;;;;;;;0.30;0.30;;;;;;;;;;6275208;22;20024;-87
2023/12/15 13:47:41;;;;;;;0.20;0.20;;;;;;;;;;6270440;22;20385;-86
2023/12/15 13:50:27;;;;;;;0.40;0.40;;;;;;;;;;6299396;22;20018;-85
2023/12/15 13:52:53;;;;;;;0.30;0.30;;;;;;;;;;6222021;22;20019;-86
2023/12/15 13:55:23;;;;;;;0.30;0.30;;;;;;;;;;6267596;22;20016;-86
2023/12/15 13:57:51;;;;;;;0.30;0.30;;;;;;;;;;6240751;22;20019;-87
2023/12/15 14:00:24;;;;;;;0.20;0.20;;;;;;;;;;6278073;22;20050;-89
2023/12/15 14:02:53;;;;;;;0.17;0.17;;;;;;;;;;6302877;22;20015;-87
2023/12/15 14:05:19;;;;;;;0.40;0.40;;;;;;;;;;6271644;22;20022;-86
2023/12/15 14:07:50;;;;;;;0.30;0.30;;;;;;;;;;6271455;22;20027;-86
2023/12/15 14:10:16;;;;;;;0.30;0.30;;;;;;;;;;6253068;22;20031;-87
2023/12/15 14:12:42;;;;;;;0.40;0.40;;;;;;;;;;6247534;22;20008;-86
2023/12/15 14:15:11;;;;;;;0.30;0.30;;;;;;;;;;6230079;22;20011;-85
2023/12/15 14:17:37;;;;;;;0.40;0.40;;;;;;;;;;6295681;22;20020;-87
2023/12/15 14:22:44;;;;;;;0.30;0.30;;;;;;;;;;6240610;22;20005;-88
2023/12/15 14:25:11;;;;;;;0.40;0.40;;;;;;;;;;6236291;23;20017;-84
2023/12/15 14:27:40;;;;;;;0.25;0.25;;;;;;;;;;6207152;23;20027;-86
2023/12/15 14:30:22;;;;;;;0.35;0.35;;;;;;;;;;6209555;23;20031;-85
2023/12/15 14:33:00;;;;;;;0.30;0.30;;;;;;;;;;6209888;23;20001;-86
2023/12/15 14:35:26;;;;;;;0.35;0.35;;;;;;;;;;6214354;23;20035;-88
2023/12/15 14:37:58;;;;;;;0.30;0.30;;;;;;;;;;6239367;23;20075;-85
2023/12/15 14:40:25;;;;;;;0.22;0.22;;;;;;;;;;6233793;23;20086;-84
2023/12/15 14:43:03;;;;;;;0.30;0.30;;;;;;;;;;6193265;23;20005;-86
2023/12/15 14:45:30;;;;;;;0.40;0.40;;;;;;;;;;6242320;23;20024;-84
2023/12/15 14:47:57;;;;;;;0.38;0.38;;;;;;;;;;6215188;23;20026;-85
2023/12/15 14:50:23;;;;;;;0.30;0.30;;;;;;;;;;6208960;23;20092;-85
2023/12/15 14:55:32;;;;;;;0.30;0.30;;;;;;;;;;6287619;22;20053;-84
2023/12/15 14:58:02;;;;;;;0.45;0.45;;;;;;;;;;6299438;22;20022;-87
2023/12/15 15:00:28;;;;;;;0.40;0.40;;;;;;;;;;6246486;22;19996;-85
2023/12/15 15:02:58;;;;;;;0.40;0.40;;;;;;;;;;6248804;22;20067;-86
2023/12/15 15:05:39;;;;;;;0.30;0.30;;;;;;;;;;6299426;22;20015;-87
2023/12/15 15:08:32;;;;;;;0.38;0.38;;;;;;;;;;6240863;22;20397;-83
2023/12/15 15:10:59;;;;;;;0.30;0.30;;;;;;;;;;6268415;22;20011;-86
2023/12/15 15:13:25;;;;;;;0.35;0.35;;;;;;;;;;6247592;22;20003;-86
2023/12/15 15:15:51;;;;;;;0.30;0.30;;;;;;;;;;6240042;22;20012;-84
2023/12/15 15:18:21;;;;;;;0.30;0.30;;;;;;;;;;6271793;22;20068;-84
2023/12/15 15:20:47;;;;;;;0.30;0.30;;;;;;;;;;6265547;22;20142;-86
2023/12/15 15:23:13;;;;;;;0.35;0.35;;;;;;;;;;6241141;22;20016;-86
2023/12/15 15:25:40;;;;;;;0.40;0.40;;;;;;;;;;6242566;22;20041;-86
2023/12/15 15:28:08;;;;;;;0.30;0.30;;;;;;;;;;6267187;22;20039;-85
2023/12/15 15:31:00;;;;;;;0.30;0.30;;;;;;;;;;6301219;22;20020;-85
2023/12/15 15:33:29;;;;;;;0.40;0.40;;;;;;;;;;6265709;22;20024;-85
2023/12/15 15:36:07;;;;;;;0.38;0.38;;;;;;;;;;6273236;22;20004;-86
2023/12/15 15:38:43;;;;;;;0.30;0.30;;;;;;;;;;6278385;22;20061;-85
2023/12/15 15:44:32;;;;;;;0.35;0.35;;;;;;;;;;6308379;22;20042;-85
2023/12/15 15:47:07;;;;;;;0.30;0.30;;;;;;;;;;6232933;22;20016;-87
2023/12/15 15:49:34;;;;;;;0.30;0.30;;;;;;;;;;6306667;22;20042;-85
2023/12/15 15:52:07;;;;;;;0.30;0.30;;;;;;;;;;6275357;22;20007;-84
2023/12/15 15:54:40;;;;;;;0.40;0.40;;;;;;;;;;6248474;23;20004;-83
2023/12/15 15:57:11;;;;;;;0.30;0.30;;;;;;;;;;6248454;23;20040;-86
2023/12/15 15:59:41;;;;;;;0.38;0.38;;;;;;;;;;6272176;23;20023;-85
2023/12/15 16:02:07;;;;;;;0.35;0.35;;;;;;;;;;6245250;23;20034;-86
2023/12/15 16:04:35;;;;;;;0.30;0.30;;;;;;;;;;6247402;22;20012;-86
2023/12/15 16:07:20;;;;;;;0.30;0.30;;;;;;;;;;6270772;23;20051;-85
2023/12/15 16:09:50;;;;;;;0.20;0.20;;;;;;;;;;6273208;22;20016;-85
2023/12/15 16:12:16;;;;;;;0.30;0.30;;;;;;;;;;6236837;23;20355;-86
2023/12/15 16:14:52;;;;;;;0.30;0.30;;;;;;;;;;6249632;23;20011;-84
2023/12/15 16:19:57;;;;;;;0.40;0.40;;;;;;;;;;6215523;22;20052;-85
2023/12/15 16:22:24;;;;;;;0.30;0.30;;;;;;;;;;6222756;22;20017;-87
2023/12/15 16:24:56;;;;;;;0.30;0.30;;;;;;;;;;6248345;22;20006;-86
2023/12/15 16:27:28;;;;;;;0.30;0.30;;;;;;;;;;6221551;22;20022;-87
2023/12/15 16:29:54;;;;;;;0.30;0.30;;;;;;;;;;6215063;23;20065;-86
2023/12/15 16:32:20;;;;;;;0.40;0.40;;;;;;;;;;6220325;23;20025;-85
2023/12/15 16:34:48;;;;;;;0.30;0.30;;;;;;;;;;6219712;22;21034;-86
2023/12/15 16:37:14;;;;;;;0.30;0.30;;;;;;;;;;6195085;23;20024;-86
2023/12/15 16:39:40;;;;;;;0.40;0.40;;;;;;;;;;6205356;23;20020;-86
2023/12/15 16:42:08;;;;;;;0.32;0.32;;;;;;;;;;6211119;23;20021;-87
2023/12/15 16:44:59;;;;;;;0.25;0.25;;;;;;;;;;6240345;22;20000;-86
2023/12/15 16:47:34;;;;;;;0.30;0.30;;;;;;;;;;6243919;23;20027;-86
2023/12/15 16:55:11;;;;;;;0.40;0.40;;;;;;;;;;6325354;22;20019;-87
2023/12/15 16:57:37;;;;;;;0.30;0.30;;;;;;;;;;6297395;22;20026;-86
2023/12/15 17:00:07;;;;;;;0.30;0.30;;;;;;;;;;6278740;22;20015;-85
2023/12/15 17:02:33;;;;;;;0.30;0.30;;;;;;;;;;6297173;22;20041;-86
2023/12/15 17:05:06;;;;;;;0.30;0.30;;;;;;;;;;6278781;22;20023;-85
2023/12/15 17:07:36;;;;;;;0.30;0.30;;;;;;;;;;6301006;22;20018;-84
2023/12/15 17:10:02;;;;;;;0.30;0.30;;;;;;;;;;6309659;22;20005;-85
2023/12/15 17:12:42;;;;;;;0.40;0.40;;;;;;;;;;6307482;22;20027;-86
2023/12/15 17:15:26;;;;;;;0.30;0.30;;;;;;;;;;6312032;22;20003;-84
2023/12/15 17:18:05;;;;;;;0.40;0.40;;;;;;;;;;6301337;22;20025;-87
2023/12/15 17:20:46;;;;;;;0.40;0.40;;;;;;;;;;6299652;22;20022;-86
2023/12/15 17:23:35;;;;;;;0.30;0.30;;;;;;;;;;6313754;22;20045;-85
2023/12/15 17:26:06;;;;;;;0.40;0.40;;;;;;;;;;6330558;22;20011;-86
2023/12/15 17:28:42;;;;;;;0.30;0.30;;;;;;;;;;6285276;22;20019;-86
2023/12/15 17:31:25;;;;;;;0.30;0.30;;;;;;;;;;6221673;23;20069;-83
2023/12/15 17:41:57;;;;;;;0.43;0.43;;;;;;;;;;6281106;22;20074;-86
2023/12/15 17:44:28;;;;;;;0.30;0.30;;;;;;;;;;6304913;22;20047;-87
2023/12/15 17:49:50;;;;;;;0.40;0.40;;;;;;;;;;6264011;22;20024;-86
2023/12/15 17:52:28;;;;;;;;;;;;;;;;;;6270064;22;20028;-85
2023/12/15 17:54:57;;;;;;;0.30;0.30;;;;;;;;;;6270368;23;19979;-86
2023/12/15 17:57:31;;;;;;;0.40;0.40;;;;;;;;;;6248169;22;20004;-87
2023/12/15 18:00:19;;;;;;;0.40;0.40;;;;;;;;;;6247638;23;20027;-85
2023/12/15 18:10:32;;;;;;;0.38;0.38;;;;;;;;;;6248230;22;20027;-91
2023/12/15 18:26:05;;;;;;;0.30;0.30;;;;;;;;;;6254930;22;20039;-92
2023/12/15 19:36:06;;;;;;;0.40;0.40;;;;;;;;;;6278200;22;20008;-92
2023/12/15 19:43:59;;;;;;;0.40;0.40;;;;;;;;;;6224031;22;20032;-89
2023/12/15 19:46:31;;;;;;;0.30;0.30;;;;;;;;;;6247140;22;20015;-91
2023/12/15 19:48:57;;;;;;;0.30;0.30;;;;;;;;;;6214565;23;20030;-93
2023/12/15 19:59:12;;;;;;;0.40;0.40;;;;;;;;;;6262942;22;19915;-92
2023/12/15 20:01:47;;;;;;;0.40;0.40;;;;;;;;;;6262251;22;20020;-93
2023/12/15 20:04:20;;;;;;;0.40;0.40;;;;;;;;;;6276994;22;20139;-91
2023/12/15 20:06:47;;;;;;;0.40;0.40;;;;;;;;;;6271588;22;20031;-91
2023/12/15 20:09:14;;;;;;;0.40;0.40;;;;;;;;;;6247328;22;20026;-94
2023/12/15 20:11:41;;;;;;;0.38;0.38;;;;;;;;;;6269471;22;20055;-92
2023/12/15 20:14:07;;;;;;;0.38;0.38;;;;;;;;;;6267428;23;20257;-94
2023/12/15 20:21:45;;;;;;;0.30;0.30;;;;;;;;;;6265119;22;20028;-91
2023/12/15 20:26:47;;;;;;;0.40;0.40;;;;;;;;;;6269910;22;20033;-92
2023/12/15 20:31:49;;;;;;;0.40;0.40;;;;;;;;;;6249834;22;20033;-92
2023/12/15 20:39:27;;;;;;;0.40;0.40;;;;;;;;;;6221867;22;20054;-91
2023/12/15 20:41:53;;;;;;;0.40;0.40;;;;;;;;;;6243971;22;20023;-91
2023/12/15 20:44:19;;;;;;;0.40;0.40;;;;;;;;;;6275228;22;20067;-93
2023/12/15 20:49:21;;;;;;;0.30;0.30;;;;;;;;;;6244627;22;20021;-95
2023/12/15 20:56:59;;;;;;;0.20;0.20;;;;;;;;;;6237634;22;20070;-90
2023/12/15 21:04:38;;;;;;;0.40;0.40;;;;;;;;;;6268134;22;20075;-93
2023/12/15 21:07:07;;;;;;;0.30;0.30;;;;;;;;;;6243883;23;20075;-91
2023/12/15 21:12:09;;;;;;;0.30;0.30;;;;;;;;;;6270802;22;20015;-90
2023/12/15 21:14:41;;;;;;;0.30;0.30;;;;;;;;;;6270164;23;20016;-94
2023/12/15 21:17:08;;;;;;;0.40;0.40;;;;;;;;;;6191726;23;20128;-92
2023/12/15 21:19:34;;;;;;;0.40;0.40;;;;;;;;;;6187175;23;20014;-91
2023/12/15 21:27:11;;;;;;;0.30;0.30;;;;;;;;;;6236731;23;20033;-91
2023/12/15 21:29:37;;;;;;;0.30;0.30;;;;;;;;;;6212660;23;20024;-92
2023/12/15 21:34:39;;;;;;;0.40;0.40;;;;;;;;;;6240758;22;20025;-93
2023/12/15 21:37:05;;;;;;;0.30;0.30;;;;;;;;;;6212488;23;20031;-93
2023/12/15 21:39:31;;;;;;;0.40;0.40;;;;;;;;;;6213557;23;20050;-92
2023/12/15 21:41:57;;;;;;;0.40;0.40;;;;;;;;;;6212568;23;20024;-92
2023/12/15 21:44:23;;;;;;;0.40;0.40;;;;;;;;;;6213188;23;20051;-91
2023/12/15 21:46:49;;;;;;;0.40;0.40;;;;;;;;;;6211891;23;20024;-93
2023/12/15 21:51:51;;;;;;;0.35;0.35;;;;;;;;;;6238717;22;20244;-94
2023/12/15 21:54:18;;;;;;;0.40;0.40;;;;;;;;;;6242503;23;20000;-95
2023/12/15 21:56:44;;;;;;;0.60;0.60;;;;;;;;;;6243216;22;20091;-94
2023/12/15 21:59:12;;;;;;;0.40;0.40;;;;;;;;;;6241244;23;20027;-93
2023/12/15 22:01:38;;;;;;;0.40;0.40;;;;;;;;;;6268366;23;20031;-91
2023/12/15 22:04:07;;;;;;;0.30;0.30;;;;;;;;;;6244672;23;20020;-93
2023/12/15 22:06:33;;;;;;;0.40;0.40;;;;;;;;;;6242497;23;20052;-93
2023/12/15 22:08:59;;;;;;;0.30;0.30;;;;;;;;;;6242621;23;20011;-92
2023/12/15 22:11:32;;;;;;;0.40;0.40;;;;;;;;;;6242861;23;20023;-91
2023/12/15 22:14:02;;;;;;;0.40;0.40;;;;;;;;;;6255100;22;20037;-91
2023/12/15 22:19:04;;;;;;;0.30;0.30;;;;;;;;;;6266736;22;20026;-94
2023/12/15 22:21:30;;;;;;;0.30;0.30;;;;;;;;;;6266215;23;20039;-92
2023/12/15 22:23:56;;;;;;;0.40;0.40;;;;;;;;;;6267475;22;20012;-94
2023/12/15 22:26:28;;;;;;;0.38;0.38;;;;;;;;;;6212635;22;20078;-92
2023/12/15 22:31:44;;;;;;;0.40;0.40;;;;;;;;;;6267075;22;20024;-91
2023/12/15 22:34:11;;;;;;;0.40;0.40;;;;;;;;;;6242364;23;20027;-93
2023/12/15 22:39:14;;;;;;;0.30;0.30;;;;;;;;;;6298839;22;20027;-94
2023/12/15 22:41:40;;;;;;;0.40;0.40;;;;;;;;;;6243498;22;20020;-92
2023/12/15 22:44:06;;;;;;;0.38;0.38;;;;;;;;;;6269262;23;20048;-92
2023/12/15 22:46:39;;;;;;;0.30;0.30;;;;;;;;;;6267685;23;20054;-92
2023/12/15 22:49:06;;;;;;;0.30;0.30;;;;;;;;;;6235637;22;20020;-92
2023/12/15 22:51:32;;;;;;;0.30;0.30;;;;;;;;;;6193140;23;20020;-93
2023/12/15 22:59:12;;;;;;;0.28;0.28;;;;;;;;;;6268800;22;20008;-91
2023/12/15 23:04:14;;;;;;;0.40;0.40;;;;;;;;;;6272563;22;20087;-92
2023/12/15 23:06:40;;;;;;;0.30;0.30;;;;;;;;;;6248342;22;20020;-91
2023/12/15 23:09:06;;;;;;;0.40;0.40;;;;;;;;;;6247502;22;20000;-91
2023/12/15 23:11:32;;;;;;;0.40;0.40;;;;;;;;;;6273611;22;20022;-94
2023/12/15 23:19:16;;;;;;;0.10;0.10;;;;;;;;;;6230205;22;20038;-90
2023/12/15 23:21:45;;;;;;;0.30;0.30;;;;;;;;;;6271842;22;20024;-91
2023/12/15 23:26:49;;;;;;;0.40;0.40;;;;;;;;;;6264880;22;20012;-92
2023/12/15 23:29:16;;;;;;;0.30;0.30;;;;;;;;;;6241579;23;20043;-94
2023/12/15 23:31:42;;;;;;;0.40;0.40;;;;;;;;;;6217289;23;20024;-93
2023/12/15 23:36:44;;;;;;;0.30;0.30;;;;;;;;;;6298845;22;20030;-91
2023/12/15 23:39:10;;;;;;;0.40;0.40;;;;;;;;;;6272995;22;20008;-92
2023/12/15 23:41:36;;;;;;;0.40;0.40;;;;;;;;;;6246983;22;20020;-94
2023/12/15 23:44:02;;;;;;;0.30;0.30;;;;;;;;;;6202483;23;20046;-92
2023/12/15 23:49:04;;;;;;;0.30;0.30;;;;;;;;;;6270059;22;20024;-92
2023/12/15 23:51:30;;;;;;;0.40;0.40;;;;;;;;;;6266539;23;20053;-90
2023/12/15 23:53:58;;;;;;;0.30;0.30;;;;;;;;;;6241269;23;20474;-95
2023/12/15 23:56:25;;;;;;;0.40;0.40;;;;;;;;;;6241367;23;20016;-94
2023/12/15 23:58:51;;;;;;;0.30;0.30;;;;;;;;;;6242118;23;20050;-92
